Time;durP1;ratioP1;P1;durP2;ratioP2;P2;SDS_P1;SDS_P2;PMS_P1;PMS_P2;Temp;Humidity;BMP_temperature;BMP_pressure;BME280_temperature;BME280_humidity;BME280_pressure;Samples;Min_cycle;Max_cycle;Signal;HPM_P1;HPM_P2
2022/09/04 00:06:18;;;;;;;1.05;0.50;;;21.20;50.60;;;;;;20509996;28;20034;-77
2022/09/04 00:16:21;;;;;;;1.85;0.73;;;21.10;50.50;;;;;;20528214;28;20215;-74
2022/09/04 00:26:38;;;;;;;0.80;0.40;;;21.10;50.50;;;;;;20480959;28;20039;-74
2022/09/04 00:36:41;;;;;;;2.10;0.70;;;21.20;50.60;;;;;;20530641;28;20389;-74
2022/09/04 00:47:04;;;;;;;0.50;0.43;;;21.10;50.50;;;;;;20503845;28;20031;-74
2022/09/04 00:57:37;;;;;;;0.93;0.45;;;21.10;50.60;;;;;;20527152;28;20046;-75
2022/09/04 01:08:01;;;;;;;1.02;0.43;;;21.10;50.60;;;;;;20537955;28;20046;-74
2022/09/04 01:18:23;;;;;;;0.60;0.50;;;21.10;50.50;;;;;;20521919;28;20034;-74
2022/09/04 01:28:39;;;;;;;0.73;0.50;;;21.10;50.50;;;;;;20957657;23;20369;-74
2022/09/04 01:39:06;;;;;;;0.77;0.50;;;21.10;50.60;;;;;;20683543;28;20041;-76
2022/09/04 01:49:25;;;;;;;0.73;0.50;;;21.10;50.70;;;;;;20682360;28;20051;-75
2022/09/04 01:59:38;;;;;;;1.45;0.73;;;21.10;50.70;;;;;;20705322;28;20029;-74
2022/09/04 02:09:45;;;;;;;1.08;0.60;;;21.00;50.60;;;;;;20657597;28;20034;-73
2022/09/04 02:20:09;;;;;;;0.50;0.50;;;21.00;50.60;;;;;;20677029;28;20030;-74
2022/09/04 02:30:17;;;;;;;1.38;0.73;;;21.00;50.70;;;;;;20690554;28;20381;-75
2022/09/04 02:40:30;;;;;;;0.70;0.60;;;21.00;50.70;;;;;;20664808;28;20372;-75
2022/09/04 02:51:12;;;;;;;1.35;0.70;;;21.00;50.70;;;;;;20686176;28;20034;-74
2022/09/04 03:01:21;;;;;;;2.00;0.60;;;21.00;50.80;;;;;;20676008;28;20038;-74
2022/09/04 03:11:43;;;;;;;0.60;0.55;;;21.00;50.80;;;;;;20618982;28;20042;-75
2022/09/04 03:22:10;;;;;;;1.35;0.60;;;21.00;50.90;;;;;;20677554;28;20041;-74
2022/09/04 03:32:27;;;;;;;1.60;0.80;;;21.00;50.90;;;;;;20637542;28;20047;-78
2022/09/04 03:42:51;;;;;;;0.82;0.60;;;20.90;50.80;;;;;;20708475;28;20034;-73
2022/09/04 03:53:12;;;;;;;0.60;0.57;;;20.90;50.90;;;;;;20729727;28;20081;-73
2022/09/04 04:03:41;;;;;;;0.90;0.60;;;20.90;50.90;;;;;;20690337;28;20147;-73
2022/09/04 04:14:13;;;;;;;1.20;0.40;;;20.90;50.90;;;;;;20649024;28;20078;-74
2022/09/04 04:24:37;;;;;;;1.25;0.80;;;20.90;50.90;;;;;;20653379;28;20085;-74
2022/09/04 04:35:34;;;;;;;0.43;0.43;;;20.90;50.90;;;;;;20711826;28;20036;-74
2022/09/04 04:45:50;;;;;;;0.77;0.57;;;20.90;50.90;;;;;;20661391;28;20389;-75
2022/09/04 04:56:44;;;;;;;1.27;0.65;;;20.80;50.80;;;;;;20694002;28;20502;-77
2022/09/04 05:06:53;;;;;;;1.70;0.77;;;20.80;50.90;;;;;;20590264;28;20046;-73
2022/09/04 05:17:03;;;;;;;0.80;0.70;;;20.80;50.90;;;;;;20652024;28;20064;-74
2022/09/04 05:27:18;;;;;;;1.48;0.70;;;20.80;50.90;;;;;;20657498;28;20092;-73
2022/09/04 05:37:26;;;;;;;1.07;0.70;;;20.80;51.00;;;;;;20687280;28;20036;-74
2022/09/04 05:47:41;;;;;;;1.08;0.50;;;20.80;51.10;;;;;;20692495;28;20057;-74
2022/09/04 05:58:11;;;;;;;1.23;0.67;;;20.80;51.10;;;;;;20703271;28;20049;-74
2022/09/04 06:08:40;;;;;;;2.00;0.55;;;20.80;51.20;;;;;;20674922;28;20050;-76
2022/09/04 06:19:30;;;;;;;0.80;0.63;;;20.80;51.20;;;;;;20688101;28;20424;-73
2022/09/04 06:29:45;;;;;;;1.27;0.60;;;20.80;51.20;;;;;;20597594;28;20050;-73
2022/09/04 06:40:12;;;;;;;1.38;0.63;;;20.80;51.20;;;;;;20701538;28;20042;-72
2022/09/04 06:50:21;;;;;;;1.42;0.80;;;20.80;51.30;;;;;;20695020;28;20108;-74
2022/09/04 07:00:22;;;;;;;1.15;0.65;;;20.80;51.30;;;;;;20660971;28;20033;-75
2022/09/04 07:10:32;;;;;;;0.77;0.55;;;20.80;51.40;;;;;;20648603;28;20034;-79
2022/09/04 07:20:51;;;;;;;0.98;0.70;;;20.80;51.40;;;;;;20651404;28;20038;-73
2022/09/04 07:30:57;;;;;;;1.70;0.77;;;20.80;51.40;;;;;;20658050;28;20047;-72
2022/09/04 07:41:33;;;;;;;1.38;0.70;;;20.80;51.40;;;;;;20655423;28;20034;-76
2022/09/04 07:51:39;;;;;;;5.18;0.60;;;20.80;51.30;;;;;;20649187;28;20049;-77
2022/09/04 08:02:05;;;;;;;1.60;1.00;;;20.80;51.20;;;;;;20674786;28;20131;-78
2022/09/04 08:12:36;;;;;;;2.33;1.17;;;20.80;51.10;;;;;;20697800;28;20393;-71
2022/09/04 08:23:05;;;;;;;2.72;0.93;;;20.80;51.00;;;;;;20707332;28;20037;-70
2022/09/04 08:33:18;;;;;;;3.70;1.10;;;20.80;50.90;;;;;;20704454;28;20085;-71
2022/09/04 08:43:36;;;;;;;4.78;1.20;;;20.80;51.10;;;;;;20707602;28;20021;-79
2022/09/04 08:54:04;;;;;;;2.90;1.20;;;20.90;51.20;;;;;;20715362;28;20096;-75
2022/09/04 09:04:25;;;;;;;2.28;1.15;;;20.80;51.10;;;;;;20693513;28;20034;-72
2022/09/04 09:14:51;;;;;;;3.25;1.23;;;20.90;51.20;;;;;;20698718;28;20046;-73
2022/09/04 09:25:13;;;;;;;2.88;1.30;;;20.90;51.40;;;;;;20703438;28;20038;-72
2022/09/04 09:35:28;;;;;;;2.85;1.05;;;20.90;51.40;;;;;;20672871;28;20041;-72
2022/09/04 09:45:58;;;;;;;2.97;1.60;;;20.90;51.40;;;;;;20694905;28;20365;-78
2022/09/04 09:56:25;;;;;;;4.78;1.80;;;20.90;51.50;;;;;;20689402;28;20038;-79
2022/09/04 10:06:43;;;;;;;3.78;1.90;;;21.00;51.80;;;;;;20706284;28;20030;-74
2022/09/04 10:17:02;;;;;;;2.80;1.33;;;21.00;51.80;;;;;;20694576;28;20068;-74
2022/09/04 10:27:20;;;;;;;4.18;1.48;;;21.00;51.90;;;;;;20698158;28;20089;-73
2022/09/04 10:37:30;;;;;;;6.45;1.63;;;21.00;51.90;;;;;;20701867;28;20034;-74
2022/09/04 10:48:15;;;;;;;2.58;1.20;;;21.00;51.90;;;;;;20661350;28;20029;-75
2022/09/04 10:58:37;;;;;;;4.97;1.50;;;21.10;52.00;;;;;;20654182;28;20034;-76
2022/09/04 11:09:08;;;;;;;3.45;1.65;;;21.00;52.00;;;;;;20675460;28;20052;-75
2022/09/04 11:19:27;;;;;;;3.03;1.77;;;21.10;52.10;;;;;;20737945;28;20047;-71
2022/09/04 11:29:58;;;;;;;2.42;1.15;;;21.10;52.10;;;;;;20678222;28;20383;-69
2022/09/04 11:40:09;;;;;;;3.53;1.27;;;21.10;52.20;;;;;;20721569;28;20045;-70
2022/09/04 11:50:21;;;;;;;1.83;1.40;;;21.10;52.20;;;;;;20646489;28;20038;-70
2022/09/04 12:00:22;;;;;;;2.13;1.10;;;21.10;52.30;;;;;;20640224;28;20062;-70
2022/09/04 12:10:31;;;;;;;1.67;0.90;;;21.10;52.40;;;;;;20623892;28;20076;-69
2022/09/04 12:20:55;;;;;;;1.67;0.80;;;21.10;52.40;;;;;;20639838;28;20030;-69
2022/09/04 12:31:26;;;;;;;1.73;0.95;;;21.20;52.40;;;;;;20639326;28;20481;-71
2022/09/04 12:41:53;;;;;;;2.28;1.13;;;21.20;52.40;;;;;;20625498;28;20034;-70
2022/09/04 12:51:58;;;;;;;2.15;1.17;;;21.20;52.40;;;;;;20686759;28;20034;-70
2022/09/04 13:02:22;;;;;;;2.20;1.25;;;21.20;52.50;;;;;;20714416;28;20033;-71
2022/09/04 13:12:45;;;;;;;2.83;1.30;;;21.20;52.60;;;;;;20669474;28;20038;-68
2022/09/04 13:23:10;;;;;;;2.65;1.25;;;21.30;52.70;;;;;;20668164;28;20182;-68
2022/09/04 13:33:38;;;;;;;3.25;1.35;;;21.30;52.70;;;;;;20725081;28;20133;-66
2022/09/04 13:43:42;;;;;;;2.42;1.15;;;21.30;52.70;;;;;;20724844;28;20133;-68
2022/09/04 13:53:50;;;;;;;3.35;1.40;;;21.30;52.70;;;;;;20730056;28;20065;-68
2022/09/04 14:04:03;;;;;;;3.30;1.38;;;21.40;52.80;;;;;;20728475;28;20045;-68
2022/09/04 14:14:29;;;;;;;4.63;1.13;;;21.40;52.80;;;;;;20729508;28;20069;-71
2022/09/04 14:24:36;;;;;;;;;;;21.40;52.80;;;;;;20724171;28;20057;-71
2022/09/04 14:35:05;;;;;;;2.15;1.08;;;21.50;52.80;;;;;;20710478;28;19917;-70
2022/09/04 14:45:32;;;;;;;2.03;1.30;;;21.50;52.80;;;;;;20708406;28;20034;-72
2022/09/04 14:55:36;;;;;;;2.83;1.25;;;21.50;52.80;;;;;;20688509;28;20041;-69
2022/09/04 15:05:58;;;;;;;3.53;1.47;;;21.60;52.80;;;;;;20629880;28;20603;-69
2022/09/04 15:16:22;;;;;;;3.08;1.48;;;21.60;52.80;;;;;;20628382;28;20038;-70
2022/09/04 15:27:11;;;;;;;2.20;0.90;;;21.70;52.80;;;;;;20664998;28;20053;-69
2022/09/04 15:37:25;;;;;;;1.55;1.15;;;21.80;52.70;;;;;;20653614;28;20527;-70
2022/09/04 15:47:44;;;;;;;1.95;1.27;;;21.90;52.70;;;;;;20689418;28;20034;-70
2022/09/04 15:58:13;;;;;;;1.95;1.33;;;21.90;52.70;;;;;;20704586;28;20046;-71
2022/09/04 16:08:19;;;;;;;1.35;0.93;;;21.90;52.80;;;;;;20690601;28;20538;-73
2022/09/04 16:18:26;;;;;;;2.13;1.40;;;21.90;52.80;;;;;;20726310;28;20044;-72
2022/09/04 16:28:31;;;;;;;1.02;0.93;;;21.90;53.00;;;;;;20720276;28;20428;-74
2022/09/04 16:38:56;;;;;;;1.37;1.00;;;21.90;53.10;;;;;;20752263;28;20045;-72
2022/09/04 16:49:07;;;;;;;1.48;1.15;;;21.80;53.10;;;;;;20665138;28;20042;-73
2022/09/04 16:59:27;;;;;;;3.78;1.30;;;21.80;53.20;;;;;;20738631;28;20034;-73
2022/09/04 17:09:39;;;;;;;1.58;1.13;;;21.90;53.30;;;;;;20707995;28;20042;-72
2022/09/04 17:19:40;;;;;;;3.25;1.50;;;21.80;53.20;;;;;;20735197;28;20113;-73
2022/09/04 17:29:48;;;;;;;1.73;1.00;;;21.80;53.30;;;;;;20718488;28;20125;-72
2022/09/04 17:39:52;;;;;;;1.92;1.33;;;21.80;53.30;;;;;;20700911;28;20095;-72
2022/09/04 17:49:54;;;;;;;6.00;1.00;;;21.80;53.50;;;;;;20700443;28;20124;-71
2022/09/04 18:00:05;;;;;;;2.10;1.30;;;21.80;53.50;;;;;;20654256;28;20116;-71
2022/09/04 18:10:08;;;;;;;1.95;1.25;;;21.80;53.60;;;;;;20650846;28;20058;-70
2022/09/04 18:20:14;;;;;;;1.33;1.00;;;21.80;53.60;;;;;;20633277;28;20081;-70
2022/09/04 18:30:15;;;;;;;0.98;0.80;;;21.70;53.70;;;;;;20617221;28;20047;-71
2022/09/04 18:40:40;;;;;;;1.67;1.02;;;21.70;53.70;;;;;;20631101;28;20038;-70
2022/09/04 18:50:43;;;;;;;1.80;1.17;;;21.80;53.90;;;;;;20726830;28;20127;-71
2022/09/04 19:00:53;;;;;;;3.85;1.10;;;21.70;53.90;;;;;;20796266;28;20030;-71
2022/09/04 19:10:55;;;;;;;2.03;1.20;;;21.70;53.90;;;;;;20724122;28;20042;-71
2022/09/04 19:20:55;;;;;;;2.03;1.10;;;21.60;53.90;;;;;;20652149;28;20120;-71
2022/09/04 19:31:02;;;;;;;1.75;1.02;;;21.70;54.00;;;;;;20709898;28;20156;-71
2022/09/04 19:41:20;;;;;;;1.88;1.13;;;21.70;54.00;;;;;;20690384;28;20396;-71
2022/09/04 19:51:41;;;;;;;0.90;0.80;;;21.70;54.00;;;;;;20706327;28;20519;-71
2022/09/04 20:01:46;;;;;;;2.17;1.27;;;21.70;54.00;;;;;;20689103;28;20033;-72
2022/09/04 20:11:51;;;;;;;1.70;1.10;;;21.60;53.90;;;;;;20705340;28;20045;-72
2022/09/04 20:22:00;;;;;;;1.88;1.08;;;21.70;54.00;;;;;;20706259;28;20076;-72
2022/09/04 20:32:07;;;;;;;2.47;1.58;;;21.60;53.90;;;;;;20704860;28;20381;-72
2022/09/04 20:42:12;;;;;;;1.63;1.02;;;21.70;54.00;;;;;;20705190;28;20048;-71
2022/09/04 20:52:34;;;;;;;1.60;1.07;;;21.70;54.00;;;;;;20704827;28;20394;-73
2022/09/04 21:02:54;;;;;;;2.20;1.10;;;21.60;53.80;;;;;;20720974;28;20351;-71
2022/09/04 21:13:16;;;;;;;1.75;1.00;;;21.60;53.80;;;;;;20712030;28;20042;-72
2022/09/04 21:23:28;;;;;;;2.67;1.05;;;21.60;53.80;;;;;;20749116;28;20030;-72
2022/09/04 21:33:45;;;;;;;1.55;0.93;;;21.60;53.70;;;;;;20748001;28;20049;-73
2022/09/04 21:44:04;;;;;;;2.05;1.10;;;21.60;53.70;;;;;;20700463;28;20181;-73
2022/09/04 21:54:04;;;;;;;1.45;0.90;;;21.60;53.60;;;;;;20746550;28;20073;-71
2022/09/04 22:04:19;;;;;;;0.95;0.73;;;21.60;53.60;;;;;;20747482;28;20041;-73
2022/09/04 22:14:26;;;;;;;1.13;0.90;;;21.60;53.50;;;;;;20729099;28;20038;-73
2022/09/04 22:24:47;;;;;;;1.75;1.02;;;21.60;53.40;;;;;;20695380;28;20030;-73
2022/09/04 22:35:14;;;;;;;1.42;0.93;;;21.60;53.60;;;;;;20710612;28;20038;-73
2022/09/04 22:45:44;;;;;;;1.65;1.00;;;21.60;53.40;;;;;;20742605;28;20029;-73
2022/09/04 22:55:52;;;;;;;2.33;1.13;;;21.60;53.30;;;;;;20741963;28;20045;-71
2022/09/04 23:06:10;;;;;;;2.30;1.20;;;21.60;53.20;;;;;;20708676;28;20030;-72
2022/09/04 23:16:18;;;;;;;1.25;1.00;;;21.60;53.10;;;;;;20693280;28;20046;-72
2022/09/04 23:26:48;;;;;;;3.63;1.15;;;21.50;53.00;;;;;;20709239;28;20050;-72
2022/09/04 23:37:01;;;;;;;2.00;1.10;;;21.50;53.00;;;;;;20739245;28;20045;-72
2022/09/04 23:47:11;;;;;;;2.00;1.15;;;21.60;53.00;;;;;;20706060;28;20030;-72
2022/09/04 23:57:34;;;;;;;1.67;1.25;;;21.50;53.00;;;;;;20739892;28;20052;-73
